createdAt,value
2024-03-02T00:00:24.279Z,94.54
2024-03-02T00:05:26.360Z,94.81
2024-03-02T00:10:41.638Z,95.33
2024-03-02T00:16:06.920Z,95.24
2024-03-02T00:21:14.639Z,95.56
2024-03-02T00:26:17.384Z,95.74
2024-03-02T00:31:21.434Z,96.05
2024-03-02T00:36:28.146Z,96.43
2024-03-02T00:41:31.992Z,96.48
2024-03-02T00:46:38.510Z,96.79
2024-03-02T00:51:41.020Z,96.70
2024-03-02T00:56:44.136Z,96.53
2024-03-02T01:01:46.292Z,96.62
2024-03-02T01:06:49.322Z,96.44
2024-03-02T01:11:51.398Z,96.65
2024-03-02T01:16:53.890Z,96.88
2024-03-02T01:21:55.846Z,97.31
2024-03-02T01:26:58.061Z,96.93
2024-03-02T01:31:59.869Z,97.06
2024-03-02T01:37:01.774Z,97.59
2024-03-02T01:42:03.799Z,97.01
2024-03-02T01:47:05.886Z,97.10
2024-03-02T01:52:08.849Z,97.06
2024-03-02T01:57:11.187Z,96.35
2024-03-02T02:02:13.059Z,96.09
2024-03-02T02:07:15.873Z,96.14
2024-03-02T02:12:17.911Z,96.27
2024-03-02T02:17:20.648Z,96.34
2024-03-02T02:22:22.858Z,96.47
2024-03-02T02:27:24.860Z,96.26
2024-03-02T02:32:26.793Z,96.33
2024-03-02T02:37:28.597Z,96.11
2024-03-02T02:42:30.595Z,96.16
2024-03-02T02:47:35.091Z,96.13
2024-03-02T02:52:41.274Z,95.71
2024-03-02T02:57:45.287Z,96.49
2024-03-02T03:02:50.294Z,96.10
2024-03-02T03:08:02.792Z,95.21
2024-03-02T03:13:04.949Z,94.82
2024-03-02T03:18:09.021Z,94.66
2024-03-02T03:23:11.093Z,94.71
2024-03-02T03:28:12.891Z,94.50
2024-03-02T03:33:15.533Z,94.23
2024-03-02T03:38:17.579Z,94.32
2024-03-02T03:43:19.528Z,94.33
2024-03-02T03:48:21.561Z,94.81
2024-03-02T03:53:23.799Z,94.85
2024-03-02T03:58:25.790Z,94.36
2024-03-02T04:03:27.691Z,94.24
2024-03-02T04:08:29.580Z,94.68
2024-03-02T04:13:31.535Z,94.90
2024-03-02T04:18:33.814Z,94.99
2024-03-02T04:23:35.693Z,95.11
2024-03-02T04:28:37.608Z,94.07
2024-03-02T04:33:39.787Z,93.97
2024-03-02T04:38:41.695Z,94.10
2024-03-02T04:43:43.629Z,93.86
2024-03-02T04:48:46.041Z,94.28
2024-03-02T04:53:48.114Z,94.12
2024-03-02T04:58:50.317Z,93.89
2024-03-02T05:03:52.435Z,94.07
2024-03-02T05:08:54.659Z,94.25
2024-03-02T05:13:57.083Z,94.22
2024-03-02T05:18:59.072Z,93.86
2024-03-02T05:24:01.349Z,94.13
2024-03-02T05:29:04.344Z,94.17
2024-03-02T05:34:06.937Z,93.61
2024-03-02T05:39:10.646Z,93.77
2024-03-02T05:44:13.781Z,93.91
2024-03-02T05:49:15.745Z,93.80
2024-03-02T05:54:17.497Z,93.84
2024-03-02T05:59:19.497Z,93.82
2024-03-02T06:04:21.477Z,93.83
2024-03-02T06:09:25.849Z,93.91
2024-03-02T06:14:27.898Z,93.95
2024-03-02T06:19:29.982Z,94.27
2024-03-02T06:24:31.919Z,94.24
2024-03-02T06:29:35.024Z,94.68
2024-03-02T06:34:36.864Z,94.57
2024-03-02T06:39:38.857Z,94.47
2024-03-02T06:44:40.821Z,94.22
2024-03-02T06:49:50.994Z,93.92
2024-03-02T06:54:52.964Z,92.95
2024-03-02T06:59:59.997Z,93.21
2024-03-02T07:05:02.263Z,93.10
2024-03-02T07:10:06.077Z,92.39
2024-03-02T07:15:08.805Z,92.44
2024-03-02T07:20:13.796Z,92.20
2024-03-02T07:30:21.123Z,92.20
2024-03-02T07:35:27.986Z,92.14
2024-03-02T07:40:30.199Z,91.07
2024-03-02T07:45:32.828Z,90.59
2024-03-02T07:50:36.235Z,89.70
2024-03-02T07:55:38.156Z,89.27
2024-03-02T08:00:41.712Z,88.78
2024-03-02T08:05:43.769Z,87.12
2024-03-02T08:10:45.956Z,86.76
2024-03-02T08:15:48.084Z,84.81
2024-03-02T08:20:50.121Z,83.74
2024-03-02T08:25:52.301Z,84.33
2024-03-02T08:30:54.524Z,83.64
2024-03-02T08:35:58.237Z,83.99
2024-03-02T08:41:00.299Z,83.37
2024-03-02T08:46:02.319Z,82.96
2024-03-02T08:51:07.330Z,82.58
2024-03-02T08:56:09.388Z,82.07
2024-03-02T09:01:12.430Z,81.68
2024-03-02T09:06:15.155Z,80.60
2024-03-02T09:11:17.416Z,80.80
2024-03-02T09:16:19.316Z,80.16
2024-03-02T09:21:21.211Z,78.81
2024-03-02T09:26:23.730Z,77.88
2024-03-02T09:31:25.608Z,78.02
2024-03-02T09:36:27.494Z,77.70
2024-03-02T09:41:29.613Z,77.22
2024-03-02T09:46:31.697Z,77.28
2024-03-02T09:51:33.902Z,76.17
2024-03-02T09:56:35.830Z,75.56
2024-03-02T10:01:37.798Z,75.00
2024-03-02T10:06:39.661Z,74.35
2024-03-02T10:11:41.606Z,74.02
2024-03-02T10:16:44.976Z,73.76
2024-03-02T10:21:47.431Z,73.30
2024-03-02T10:26:50.591Z,71.75
2024-03-02T10:31:54.034Z,70.33
2024-03-02T10:36:57.188Z,70.24
2024-03-02T10:42:00.100Z,70.19
2024-03-02T10:47:17.419Z,70.55
2024-03-02T10:52:24.593Z,70.46
2024-03-02T10:57:34.266Z,70.01
2024-03-02T11:02:40.345Z,70.59
2024-03-02T11:08:33.943Z,70.33
2024-03-02T11:13:38.672Z,69.52
2024-03-02T11:18:43.151Z,69.41
2024-03-02T11:23:45.511Z,69.99
2024-03-02T11:28:49.153Z,69.96
2024-03-02T11:33:51.252Z,68.74
2024-03-02T11:38:55.251Z,68.71
2024-03-02T11:43:57.435Z,68.40
2024-03-02T11:49:00.850Z,67.70
2024-03-02T11:54:04.163Z,66.97
2024-03-02T11:59:06.179Z,67.39
2024-03-02T12:04:08.554Z,66.92
2024-03-02T12:09:16.072Z,66.32
2024-03-02T12:14:18.340Z,66.11
2024-03-02T12:19:21.827Z,65.70
2024-03-02T12:24:25.993Z,65.35
2024-03-02T12:29:28.005Z,65.05
2024-03-02T12:34:30.127Z,64.19
2024-03-02T12:39:34.495Z,64.03
2024-03-02T12:44:36.688Z,65.53
2024-03-02T12:49:38.915Z,65.87
2024-03-02T12:54:41.022Z,66.25
2024-03-02T12:59:47.826Z,66.31
2024-03-02T13:04:55.998Z,66.78
2024-03-02T13:09:58.583Z,66.49
2024-03-02T13:15:00.586Z,67.09
2024-03-02T13:20:02.680Z,68.81
2024-03-02T13:25:05.788Z,70.46
2024-03-02T13:30:10.883Z,71.50
2024-03-02T13:35:13.012Z,71.69
2024-03-02T13:40:19.136Z,72.13
2024-03-02T13:45:21.062Z,72.53
2024-03-02T13:50:23.028Z,72.78
2024-03-02T13:55:25.320Z,73.87
2024-03-02T14:00:27.762Z,74.58
2024-03-02T14:05:29.796Z,75.35
2024-03-02T14:10:31.980Z,76.45
2024-03-02T14:15:41.536Z,77.32
2024-03-02T14:20:46.331Z,77.54
2024-03-02T14:25:49.378Z,78.32
2024-03-02T14:30:52.024Z,78.76
2024-03-02T14:35:54.079Z,79.48
2024-03-02T14:40:56.081Z,80.05
2024-03-02T14:45:58.838Z,80.63
2024-03-02T14:51:01.664Z,80.97
2024-03-02T14:56:07.646Z,81.24
2024-03-02T15:01:25.507Z,81.63
2024-03-02T15:06:45.915Z,81.90
2024-03-02T15:11:48.098Z,81.60
2024-03-02T15:16:50.814Z,81.20
2024-03-02T15:21:53.016Z,80.99
2024-03-02T15:26:55.573Z,81.13
2024-03-02T15:31:58.639Z,81.80
2024-03-02T15:37:01.623Z,82.19
2024-03-02T15:42:05.207Z,82.51
2024-03-02T15:47:09.034Z,82.45
2024-03-02T15:52:11.008Z,82.74
2024-03-02T15:57:13.906Z,82.66
2024-03-02T16:02:15.748Z,83.07
2024-03-02T16:07:17.713Z,83.20
2024-03-02T16:12:19.665Z,83.80
2024-03-02T16:17:21.653Z,84.33
2024-03-02T16:22:24.283Z,84.95
2024-03-02T16:27:26.243Z,85.94
2024-03-02T16:32:28.236Z,86.83
2024-03-02T16:37:30.494Z,87.33
2024-03-02T16:42:33.016Z,87.85
2024-03-02T16:47:34.956Z,88.07
2024-03-02T16:52:37.062Z,88.37
2024-03-02T16:57:39.065Z,88.45
2024-03-02T17:02:44.054Z,89.18
2024-03-02T17:07:45.825Z,89.26
2024-03-02T17:12:47.840Z,89.77
2024-03-02T17:17:49.872Z,89.84
2024-03-02T17:22:51.927Z,89.87
2024-03-02T17:28:29.514Z,89.80
2024-03-02T17:33:32.567Z,89.97
2024-03-02T17:38:34.549Z,90.18
2024-03-02T17:43:36.446Z,90.64
2024-03-02T17:48:38.521Z,90.60
2024-03-02T17:53:40.668Z,90.88
2024-03-02T17:58:42.553Z,91.25
2024-03-02T18:03:44.557Z,91.49
2024-03-02T18:08:46.516Z,91.59
2024-03-02T18:13:48.600Z,91.85
2024-03-02T18:18:50.933Z,91.13
2024-03-02T18:23:52.978Z,91.08
2024-03-02T18:28:54.880Z,90.75
2024-03-02T18:33:56.930Z,91.14
2024-03-02T18:38:59.436Z,91.24
2024-03-02T18:44:04.658Z,91.83
2024-03-02T18:49:07.133Z,91.95
2024-03-02T18:54:09.833Z,92.17
2024-03-02T18:59:11.688Z,92.22
2024-03-02T19:04:13.732Z,92.30
2024-03-02T19:09:16.483Z,92.35
2024-03-02T19:14:18.294Z,92.39
2024-03-02T19:19:20.246Z,92.22
2024-03-02T19:24:22.290Z,92.04
2024-03-02T19:29:29.721Z,92.10
2024-03-02T19:34:31.608Z,92.34
2024-03-02T19:39:37.437Z,92.26
2024-03-02T19:44:41.763Z,91.98
2024-03-02T19:49:43.673Z,91.97
2024-03-02T19:54:45.807Z,91.75
2024-03-02T19:59:47.773Z,91.75
2024-03-02T20:04:49.624Z,91.81
2024-03-02T20:09:52.019Z,91.73
2024-03-02T20:14:54.106Z,91.89
2024-03-02T20:19:56.409Z,91.89
2024-03-02T20:24:58.413Z,92.17
2024-03-02T20:30:17.549Z,92.39
2024-03-02T20:35:21.609Z,92.52
2024-03-02T20:40:23.697Z,92.65
2024-03-02T20:45:25.861Z,92.46
2024-03-02T20:50:27.934Z,92.51
2024-03-02T20:55:30.116Z,92.54
2024-03-02T21:00:32.331Z,92.60
2024-03-02T21:05:34.294Z,93.06
2024-03-02T21:10:36.374Z,92.98
2024-03-02T21:15:38.348Z,92.87
2024-03-02T21:20:40.373Z,93.15
2024-03-02T21:25:43.151Z,93.50
2024-03-02T21:30:45.355Z,93.20
2024-03-02T21:35:57.758Z,93.25
2024-03-02T21:40:59.669Z,92.73
2024-03-02T21:46:01.779Z,92.80
2024-03-02T21:51:04.137Z,92.93
2024-03-02T21:56:06.716Z,92.72
2024-03-02T22:01:08.764Z,92.21
2024-03-02T22:06:10.874Z,92.16
2024-03-02T22:11:14.630Z,92.15
2024-03-02T22:16:17.853Z,92.70
2024-03-02T22:21:19.999Z,92.91
2024-03-02T22:26:24.071Z,92.80
2024-03-02T22:31:26.108Z,92.88
2024-03-02T22:36:28.107Z,92.88
2024-03-02T22:41:30.419Z,92.84
2024-03-02T22:46:32.368Z,93.17
2024-03-02T22:51:34.404Z,93.32
2024-03-02T22:56:36.358Z,93.31
2024-03-02T23:01:40.852Z,93.14
2024-03-02T23:06:44.134Z,92.96
2024-03-02T23:11:46.198Z,92.73
2024-03-02T23:16:48.763Z,92.77
2024-03-02T23:21:51.212Z,92.74
2024-03-02T23:26:53.748Z,92.45
2024-03-02T23:31:55.689Z,92.11
2024-03-02T23:36:57.748Z,91.82
2024-03-02T23:41:59.697Z,91.62
2024-03-02T23:47:01.779Z,91.54
2024-03-02T23:52:03.784Z,91.43
2024-03-02T23:57:06.172Z,91.19
